createdAt,value
2023-03-30T00:00:59.458Z,9.90
2023-03-30T00:03:27.394Z,6.38
2023-03-30T00:05:58.478Z,9.63
2023-03-30T00:08:29.928Z,7.28
2023-03-30T00:11:01.451Z,6.40
2023-03-30T00:13:28.815Z,9.55
2023-03-30T00:15:55.902Z,6.72
2023-03-30T00:18:22.916Z,9.18
2023-03-30T00:20:50.930Z,7.13
2023-03-30T00:23:19.049Z,9.50
2023-03-30T00:25:46.408Z,8.93
2023-03-30T00:28:13.181Z,8.73
2023-03-30T00:30:41.771Z,8.95
2023-03-30T00:33:08.631Z,7.55
2023-03-30T00:35:36.747Z,8.90
2023-03-30T00:38:03.651Z,5.78
2023-03-30T00:40:32.671Z,8.07
2023-03-30T00:43:04.678Z,5.03
2023-03-30T00:45:36.884Z,6.55
2023-03-30T00:48:23.398Z,5.22
2023-03-30T00:51:01.727Z,6.90
2023-03-30T00:53:33.534Z,5.53
2023-03-30T00:56:02.281Z,5.50
2023-03-30T00:58:29.999Z,5.80
2023-03-30T01:01:00.054Z,5.10
2023-03-30T01:03:47.990Z,5.45
2023-03-30T01:06:21.979Z,6.05
2023-03-30T01:08:53.239Z,5.38
2023-03-30T01:11:21.632Z,3.60
2023-03-30T01:13:52.772Z,6.15
2023-03-30T01:16:35.124Z,6.53
2023-03-30T01:19:33.164Z,5.10
2023-03-30T01:22:04.807Z,9.60
2023-03-30T01:24:49.386Z,6.00
2023-03-30T01:27:53.601Z,5.35
2023-03-30T01:30:55.903Z,6.32
2023-03-30T01:33:28.529Z,5.65
2023-03-30T01:36:25.264Z,4.00
2023-03-30T01:39:13.770Z,5.80
2023-03-30T01:41:56.604Z,5.25
2023-03-30T01:44:32.192Z,10.65
2023-03-30T01:47:06.149Z,5.57
2023-03-30T01:49:58.139Z,5.63
2023-03-30T01:52:32.005Z,5.93
2023-03-30T01:55:20.664Z,8.05
2023-03-30T01:57:53.225Z,8.52
2023-03-30T02:00:23.688Z,6.10
2023-03-30T02:03:08.751Z,7.53
2023-03-30T02:05:37.089Z,3.17
2023-03-30T02:08:17.267Z,5.18
2023-03-30T02:10:46.398Z,5.90
2023-03-30T02:13:15.345Z,3.70
2023-03-30T02:15:45.940Z,7.00
2023-03-30T02:18:12.816Z,6.40
2023-03-30T02:20:42.221Z,4.13
2023-03-30T02:23:09.257Z,4.07
2023-03-30T02:25:38.607Z,5.53
2023-03-30T02:28:08.381Z,5.70
2023-03-30T02:30:40.077Z,4.35
2023-03-30T02:33:09.058Z,4.28
2023-03-30T02:35:53.462Z,8.63
2023-03-30T02:38:20.407Z,5.82
2023-03-30T02:41:04.847Z,5.25
2023-03-30T02:43:44.510Z,2.13
2023-03-30T02:46:41.947Z,6.50
2023-03-30T02:49:17.693Z,3.22
2023-03-30T02:52:01.922Z,4.88
2023-03-30T02:55:14.644Z,7.43
2023-03-30T02:57:56.019Z,5.63
2023-03-30T03:00:43.298Z,4.43
2023-03-30T03:03:36.646Z,3.53
2023-03-30T03:06:04.906Z,9.90
2023-03-30T03:08:39.646Z,4.43
2023-03-30T03:11:09.021Z,5.68
2023-03-30T03:13:37.497Z,3.25
2023-03-30T03:16:06.220Z,3.80
2023-03-30T03:18:34.997Z,5.72
2023-03-30T03:21:02.319Z,4.28
2023-03-30T03:23:29.712Z,7.05
2023-03-30T03:25:56.993Z,3.38
2023-03-30T03:28:24.028Z,3.58
2023-03-30T03:30:55.378Z,8.55
2023-03-30T03:33:24.678Z,5.05
2023-03-30T03:36:12.371Z,4.90
2023-03-30T03:38:45.968Z,2.90
2023-03-30T03:41:14.082Z,3.90
2023-03-30T03:43:42.724Z,5.60
2023-03-30T03:46:09.794Z,4.88
2023-03-30T03:48:36.813Z,4.20
2023-03-30T03:51:04.011Z,2.70
2023-03-30T03:53:33.719Z,9.50
2023-03-30T03:56:04.786Z,4.23
2023-03-30T03:58:32.033Z,5.53
2023-03-30T04:01:03.257Z,2.90
2023-03-30T04:03:30.804Z,6.00
2023-03-30T04:06:02.468Z,4.07
2023-03-30T04:08:29.849Z,4.00
2023-03-30T04:11:12.030Z,3.78
2023-03-30T04:13:57.261Z,5.47
2023-03-30T04:16:35.737Z,6.95
2023-03-30T04:19:38.030Z,5.82
2023-03-30T04:22:41.811Z,3.55
2023-03-30T04:25:29.022Z,3.25
2023-03-30T04:28:05.251Z,3.20
2023-03-30T04:31:10.664Z,3.50
2023-03-30T04:33:57.562Z,3.78
2023-03-30T04:36:45.264Z,6.28
2023-03-30T04:39:23.704Z,5.70
2023-03-30T04:42:14.341Z,3.70
2023-03-30T04:44:54.840Z,9.17
2023-03-30T04:47:42.006Z,6.40
2023-03-30T04:50:23.896Z,6.60
2023-03-30T04:53:09.450Z,7.57
2023-03-30T04:55:55.027Z,4.40
2023-03-30T04:58:45.083Z,9.80
2023-03-30T05:01:38.080Z,6.70
2023-03-30T05:04:23.443Z,9.20
2023-03-30T05:07:14.958Z,8.63
2023-03-30T05:09:47.386Z,8.13
2023-03-30T05:12:16.892Z,7.47
2023-03-30T05:14:52.664Z,8.32
2023-03-30T05:17:38.724Z,11.27
2023-03-30T05:20:34.791Z,6.50
2023-03-30T05:23:34.137Z,8.98
2023-03-30T05:26:21.687Z,6.10
2023-03-30T05:29:13.894Z,11.60
2023-03-30T05:32:10.007Z,8.70
2023-03-30T05:35:12.242Z,8.63
2023-03-30T05:37:58.554Z,12.57
2023-03-30T05:40:45.063Z,13.77
2023-03-30T05:43:21.469Z,9.75
2023-03-30T05:45:51.601Z,10.00
2023-03-30T05:48:36.092Z,13.00
2023-03-30T05:51:21.721Z,17.15
2023-03-30T05:54:04.662Z,13.57
2023-03-30T05:56:37.707Z,13.95
2023-03-30T05:59:27.006Z,12.85
2023-03-30T06:02:08.373Z,9.02
2023-03-30T06:04:37.120Z,10.98
2023-03-30T06:07:04.403Z,11.88
2023-03-30T06:09:31.901Z,14.18
2023-03-30T06:12:02.670Z,10.60
2023-03-30T06:14:31.088Z,16.98
2023-03-30T06:17:16.676Z,11.52
2023-03-30T06:19:44.323Z,10.32
2023-03-30T06:22:11.446Z,15.85
2023-03-30T06:24:53.488Z,19.55
2023-03-30T06:27:21.359Z,13.38
2023-03-30T06:29:48.624Z,17.90
2023-03-30T06:32:15.521Z,14.50
2023-03-30T06:34:51.515Z,11.97
2023-03-30T06:37:20.591Z,13.40
2023-03-30T06:39:48.820Z,14.82
2023-03-30T06:42:15.724Z,13.93
2023-03-30T06:44:57.414Z,14.48
2023-03-30T06:47:24.412Z,14.20
2023-03-30T06:49:51.469Z,18.67
2023-03-30T06:52:38.046Z,16.25
2023-03-30T06:55:06.283Z,17.17
2023-03-30T06:57:33.486Z,15.43
2023-03-30T07:00:02.026Z,16.92
2023-03-30T07:02:47.545Z,18.17
2023-03-30T07:05:37.820Z,19.77
2023-03-30T07:08:12.780Z,21.73
2023-03-30T07:10:47.136Z,17.58
2023-03-30T07:13:16.490Z,18.63
2023-03-30T07:15:46.089Z,18.67
2023-03-30T07:18:14.004Z,18.52
2023-03-30T07:20:42.046Z,15.27
2023-03-30T07:23:16.730Z,15.00
2023-03-30T07:25:46.349Z,16.02
2023-03-30T07:28:16.756Z,20.58
2023-03-30T07:30:45.685Z,21.42
2023-03-30T07:33:14.844Z,17.40
2023-03-30T07:35:45.000Z,15.85
2023-03-30T07:38:14.208Z,19.52
2023-03-30T07:40:45.957Z,19.23
2023-03-30T07:43:14.394Z,17.65
2023-03-30T07:45:41.693Z,14.13
2023-03-30T07:48:11.833Z,17.35
2023-03-30T07:50:38.773Z,13.63
2023-03-30T07:53:05.638Z,15.10
2023-03-30T07:55:32.767Z,18.15
2023-03-30T07:58:07.965Z,20.97
2023-03-30T08:00:34.786Z,18.73
2023-03-30T08:03:22.126Z,17.10
2023-03-30T08:05:54.072Z,23.83
2023-03-30T08:08:23.357Z,18.75
2023-03-30T08:10:50.937Z,21.08
2023-03-30T08:13:19.794Z,21.92
2023-03-30T08:15:50.748Z,24.17
2023-03-30T08:18:17.703Z,20.33
2023-03-30T08:20:45.407Z,19.90
2023-03-30T08:23:12.810Z,20.38
2023-03-30T08:25:39.902Z,18.05
2023-03-30T08:28:06.901Z,19.63
2023-03-30T08:30:34.068Z,19.38
2023-03-30T08:33:01.156Z,17.55
2023-03-30T08:35:28.153Z,20.90
2023-03-30T08:37:55.739Z,22.70
2023-03-30T08:40:23.236Z,25.77
2023-03-30T08:43:09.345Z,19.23
2023-03-30T08:45:41.980Z,17.75
2023-03-30T08:48:18.794Z,15.93
2023-03-30T08:51:02.834Z,19.15
2023-03-30T08:53:32.392Z,22.30
2023-03-30T08:56:15.079Z,18.55
2023-03-30T08:58:53.901Z,20.50
2023-03-30T09:01:26.317Z,17.55
2023-03-30T09:04:35.814Z,22.52
2023-03-30T09:07:18.308Z,24.33
2023-03-30T09:09:49.090Z,24.52
2023-03-30T09:12:23.969Z,31.52
2023-03-30T09:14:55.868Z,21.13
2023-03-30T09:17:33.024Z,22.30
2023-03-30T09:20:20.966Z,21.20
2023-03-30T09:22:49.420Z,28.83
2023-03-30T09:25:26.207Z,28.50
2023-03-30T09:27:58.959Z,30.65
2023-03-30T09:30:41.027Z,27.80
2023-03-30T09:33:36.072Z,29.77
2023-03-30T09:36:29.504Z,27.07
2023-03-30T09:38:56.511Z,23.35
2023-03-30T09:41:57.252Z,27.98
2023-03-30T09:44:46.263Z,28.58
2023-03-30T09:47:25.332Z,35.80
2023-03-30T09:50:00.504Z,29.38
2023-03-30T09:52:30.045Z,29.40
2023-03-30T09:54:57.404Z,33.25
2023-03-30T09:57:30.098Z,27.77
2023-03-30T09:59:59.801Z,29.63
2023-03-30T10:02:31.016Z,27.05
2023-03-30T10:05:00.945Z,28.73
2023-03-30T10:07:40.407Z,25.67
2023-03-30T10:10:36.692Z,28.52
2023-03-30T10:13:13.649Z,30.40
2023-03-30T10:15:44.223Z,26.10
2023-03-30T10:18:27.857Z,35.40
2023-03-30T10:21:08.021Z,28.67
2023-03-30T10:23:42.083Z,26.97
2023-03-30T10:26:19.237Z,25.25
2023-03-30T10:29:11.261Z,22.45
2023-03-30T10:31:42.824Z,27.48
2023-03-30T10:34:18.867Z,30.10
2023-03-30T10:36:50.631Z,24.90
2023-03-30T10:39:25.833Z,27.90
2023-03-30T10:41:54.139Z,30.43
2023-03-30T10:44:44.658Z,27.50
2023-03-30T10:47:20.858Z,26.33
2023-03-30T10:50:07.571Z,24.65
2023-03-30T10:52:59.632Z,24.02
2023-03-30T10:55:32.599Z,25.50
2023-03-30T10:58:30.856Z,29.70
2023-03-30T11:01:20.774Z,24.35
2023-03-30T11:03:58.383Z,20.60
2023-03-30T11:06:31.633Z,25.98
2023-03-30T11:09:04.040Z,24.97
2023-03-30T11:11:39.834Z,23.33
2023-03-30T11:14:13.856Z,26.40
2023-03-30T11:16:53.841Z,25.60
2023-03-30T11:19:40.066Z,24.40
2023-03-30T11:22:23.917Z,22.48
2023-03-30T11:24:52.560Z,21.02
2023-03-30T11:27:34.434Z,28.33
2023-03-30T11:30:26.681Z,22.30
2023-03-30T11:33:07.558Z,24.48
2023-03-30T11:35:46.673Z,24.77
2023-03-30T11:38:42.719Z,21.60
2023-03-30T11:41:36.671Z,21.98
2023-03-30T11:44:03.524Z,28.17
2023-03-30T11:47:03.638Z,20.90
2023-03-30T11:49:50.866Z,19.73
2023-03-30T11:52:56.503Z,21.35
2023-03-30T11:56:07.946Z,27.15
2023-03-30T11:58:44.511Z,26.35
2023-03-30T12:01:24.391Z,24.83
2023-03-30T12:03:58.730Z,23.35
2023-03-30T12:06:31.221Z,26.58
2023-03-30T12:09:17.013Z,32.72
2023-03-30T12:12:03.252Z,34.13
2023-03-30T12:14:33.115Z,23.77
2023-03-30T12:17:25.601Z,30.48
2023-03-30T12:20:05.750Z,29.23
2023-03-30T12:22:49.015Z,34.45
2023-03-30T12:25:37.849Z,26.52
2023-03-30T12:28:14.896Z,27.50
2023-03-30T12:30:52.593Z,31.58
2023-03-30T12:33:27.606Z,24.10
2023-03-30T12:36:02.015Z,24.45
2023-03-30T12:38:46.205Z,26.23
2023-03-30T12:41:20.686Z,25.98
2023-03-30T12:43:56.350Z,25.20
2023-03-30T12:46:36.100Z,28.33
2023-03-30T12:49:08.944Z,20.88
2023-03-30T12:52:00.648Z,24.27
2023-03-30T12:54:42.521Z,25.52
2023-03-30T12:57:35.048Z,21.05
2023-03-30T13:00:41.249Z,24.02
2023-03-30T13:03:23.531Z,23.42
2023-03-30T13:05:54.130Z,29.88
2023-03-30T13:08:36.442Z,25.95
2023-03-30T13:11:18.945Z,25.70
2023-03-30T13:14:00.652Z,28.38
2023-03-30T13:16:48.342Z,32.63
2023-03-30T13:19:33.699Z,29.27
2023-03-30T13:22:12.823Z,30.33
2023-03-30T13:24:42.957Z,30.67
2023-03-30T13:27:18.937Z,35.22
2023-03-30T13:29:59.520Z,26.17
2023-03-30T13:33:11.516Z,22.15
2023-03-30T13:35:48.789Z,26.67
2023-03-30T13:38:49.011Z,23.60
2023-03-30T13:41:44.205Z,20.60
2023-03-30T13:44:37.092Z,25.30
2023-03-30T13:47:36.362Z,26.13
2023-03-30T13:50:15.483Z,23.75
2023-03-30T13:52:46.634Z,23.80
2023-03-30T13:55:22.968Z,19.65
2023-03-30T13:57:53.922Z,23.83
2023-03-30T14:00:33.267Z,23.37
2023-03-30T14:03:36.293Z,18.30
2023-03-30T14:06:26.466Z,22.92
2023-03-30T14:09:11.614Z,19.40
2023-03-30T14:11:48.688Z,23.08
2023-03-30T14:14:23.187Z,18.00
2023-03-30T14:16:51.331Z,19.83
2023-03-30T14:19:32.003Z,19.45
2023-03-30T14:22:21.708Z,19.38
2023-03-30T14:25:03.459Z,24.20
2023-03-30T14:27:38.576Z,22.07
2023-03-30T14:30:34.923Z,18.75
2023-03-30T14:33:06.435Z,24.40
2023-03-30T14:35:43.023Z,24.38
2023-03-30T14:38:23.884Z,21.55
2023-03-30T14:40:52.621Z,19.77
2023-03-30T14:43:24.482Z,16.83
2023-03-30T14:45:53.641Z,18.05
2023-03-30T14:48:30.622Z,16.58
2023-03-30T14:50:57.659Z,16.60
2023-03-30T14:53:27.724Z,14.95
2023-03-30T14:55:58.261Z,18.60
2023-03-30T14:58:27.900Z,16.63
2023-03-30T15:00:58.796Z,16.85
2023-03-30T15:03:33.796Z,10.73
2023-03-30T15:06:06.808Z,13.35
2023-03-30T15:08:39.514Z,15.23
2023-03-30T15:11:29.730Z,14.52
2023-03-30T15:13:58.670Z,14.82
2023-03-30T15:16:31.007Z,16.10
2023-03-30T15:19:21.933Z,17.27
2023-03-30T15:21:54.536Z,19.10
2023-03-30T15:24:29.343Z,18.58
2023-03-30T15:27:00.210Z,17.07
2023-03-30T15:29:27.376Z,19.23
2023-03-30T15:32:22.134Z,18.10
2023-03-30T15:35:10.217Z,16.27
2023-03-30T15:37:37.508Z,24.02
2023-03-30T15:40:29.314Z,20.92
2023-03-30T15:43:33.683Z,14.05
2023-03-30T15:46:12.909Z,19.02
2023-03-30T15:48:44.106Z,12.75
2023-03-30T15:51:16.995Z,13.40
2023-03-30T15:54:12.954Z,11.00
2023-03-30T15:56:49.275Z,13.35
2023-03-30T15:59:20.676Z,13.77
2023-03-30T16:01:55.187Z,19.98
2023-03-30T16:04:24.081Z,15.40
2023-03-30T16:06:52.579Z,16.48
2023-03-30T16:09:19.553Z,17.98
2023-03-30T16:11:47.053Z,14.40
2023-03-30T16:14:18.086Z,16.40
2023-03-30T16:16:44.969Z,16.95
2023-03-30T16:19:17.438Z,17.15
2023-03-30T16:21:45.510Z,20.70
2023-03-30T16:24:12.800Z,16.15
2023-03-30T16:26:39.920Z,21.80
2023-03-30T16:29:19.272Z,15.68
2023-03-30T16:31:46.322Z,19.33
2023-03-30T16:34:13.330Z,15.48
2023-03-30T16:36:40.317Z,16.05
2023-03-30T16:39:23.806Z,14.05
2023-03-30T16:41:51.618Z,19.77
2023-03-30T16:44:19.750Z,21.60
2023-03-30T16:46:47.589Z,19.23
2023-03-30T16:49:21.685Z,18.60
2023-03-30T16:51:49.038Z,14.77
2023-03-30T16:54:27.667Z,18.57
2023-03-30T16:56:58.190Z,16.40
2023-03-30T16:59:26.798Z,15.20
2023-03-30T17:01:53.605Z,16.67
2023-03-30T17:04:20.523Z,14.03
2023-03-30T17:06:47.580Z,18.55
2023-03-30T17:09:19.623Z,21.98
2023-03-30T17:11:48.223Z,16.67
2023-03-30T17:14:15.409Z,21.00
2023-03-30T17:16:42.766Z,22.57
2023-03-30T17:19:14.318Z,21.27
2023-03-30T17:21:43.444Z,24.63
2023-03-30T17:24:15.401Z,13.27
2023-03-30T17:26:42.495Z,19.33
2023-03-30T17:29:13.627Z,16.38
2023-03-30T17:31:47.876Z,18.50
2023-03-30T17:34:15.024Z,16.00
2023-03-30T17:36:42.397Z,16.45
2023-03-30T17:39:14.638Z,13.88
2023-03-30T17:41:41.706Z,17.35
2023-03-30T17:44:08.496Z,13.02
2023-03-30T17:46:35.742Z,14.20
2023-03-30T17:49:02.553Z,14.27
2023-03-30T17:51:29.427Z,16.38
2023-03-30T17:53:56.320Z,15.93
2023-03-30T17:56:23.281Z,21.23
2023-03-30T17:58:51.750Z,21.13
2023-03-30T18:01:18.739Z,24.37
2023-03-30T18:03:45.660Z,24.45
2023-03-30T18:06:12.991Z,25.90
2023-03-30T18:08:40.608Z,24.55
2023-03-30T18:11:07.570Z,28.83
2023-03-30T18:13:34.992Z,22.40
2023-03-30T18:16:02.316Z,22.13
2023-03-30T18:18:31.106Z,20.48
2023-03-30T18:21:03.430Z,27.88
2023-03-30T18:23:33.229Z,25.75
2023-03-30T18:26:01.553Z,30.08
2023-03-30T18:28:29.255Z,28.05
2023-03-30T18:30:57.622Z,20.60
2023-03-30T18:33:25.370Z,20.10
2023-03-30T18:35:53.286Z,25.00
2023-03-30T18:38:21.812Z,19.00
2023-03-30T18:40:57.628Z,22.70
2023-03-30T18:43:26.530Z,22.02
2023-03-30T18:45:57.823Z,18.80
2023-03-30T18:48:26.686Z,26.63
2023-03-30T18:50:55.314Z,19.48
2023-03-30T18:53:24.448Z,21.52
2023-03-30T18:55:53.438Z,20.88
2023-03-30T18:58:23.167Z,23.25
2023-03-30T19:00:51.744Z,20.30
2023-03-30T19:03:19.404Z,18.65
2023-03-30T19:05:46.994Z,20.63
2023-03-30T19:08:17.079Z,21.70
2023-03-30T19:10:46.021Z,23.60
2023-03-30T19:13:17.117Z,17.75
2023-03-30T19:15:45.714Z,25.27
2023-03-30T19:18:14.338Z,23.15
2023-03-30T19:20:42.040Z,29.77
2023-03-30T19:23:11.839Z,26.85
2023-03-30T19:25:39.238Z,24.25
2023-03-30T19:28:06.963Z,21.27
2023-03-30T19:30:36.875Z,24.58
2023-03-30T19:33:09.380Z,24.80
2023-03-30T19:38:54.913Z,19.95
2023-03-30T19:41:21.724Z,23.88
2023-03-30T19:43:50.210Z,28.27
2023-03-30T19:46:17.021Z,24.38
2023-03-30T19:48:43.774Z,20.35
2023-03-30T19:51:11.617Z,25.30
2023-03-30T19:53:38.665Z,23.52
2023-03-30T19:56:11.057Z,27.40
2023-03-30T19:58:38.841Z,19.17
2023-03-30T20:01:08.259Z,27.77
2023-03-30T20:03:35.743Z,25.48
2023-03-30T20:06:03.027Z,25.53
2023-03-30T20:08:29.891Z,18.85
2023-03-30T20:10:58.880Z,17.73
2023-03-30T20:13:27.333Z,21.63
2023-03-30T20:15:55.772Z,22.10
2023-03-30T20:18:22.726Z,18.63
2023-03-30T20:20:50.535Z,22.50
2023-03-30T20:23:17.342Z,19.83
2023-03-30T20:25:49.267Z,24.67
2023-03-30T20:28:17.380Z,24.55
2023-03-30T20:30:44.256Z,24.15
2023-03-30T20:33:11.140Z,20.33
2023-03-30T20:35:38.825Z,18.63
2023-03-30T20:38:06.642Z,14.27
2023-03-30T20:40:34.563Z,19.60
2023-03-30T20:43:03.284Z,17.17
2023-03-30T20:45:31.240Z,20.27
2023-03-30T20:47:59.762Z,17.52
2023-03-30T20:50:27.193Z,20.95
2023-03-30T20:52:54.150Z,20.60
2023-03-30T20:55:21.106Z,17.92
2023-03-30T20:57:48.019Z,17.15
2023-03-30T21:00:15.671Z,17.77
2023-03-30T21:02:42.667Z,19.30
2023-03-30T21:05:09.736Z,17.00
2023-03-30T21:07:38.527Z,18.23
2023-03-30T21:10:06.452Z,19.83
2023-03-30T21:12:33.346Z,18.50
2023-03-30T21:15:00.281Z,22.65
2023-03-30T21:17:27.205Z,21.00
2023-03-30T21:19:53.977Z,19.52
2023-03-30T21:22:21.413Z,19.95
2023-03-30T21:24:48.217Z,25.08
2023-03-30T21:27:15.064Z,20.52
2023-03-30T21:29:41.825Z,17.33
2023-03-30T21:32:08.752Z,27.77
2023-03-30T21:34:35.544Z,18.90
2023-03-30T21:37:02.552Z,20.35
2023-03-30T21:39:29.637Z,25.00
2023-03-30T21:41:56.438Z,24.35
2023-03-30T21:44:23.369Z,18.33
2023-03-30T21:46:50.225Z,22.55
2023-03-30T21:49:17.171Z,20.65
2023-03-30T21:51:44.148Z,19.58
2023-03-30T21:54:11.269Z,16.05
2023-03-30T21:56:38.189Z,22.02
2023-03-30T21:59:05.292Z,24.90
2023-03-30T22:01:32.346Z,21.20
2023-03-30T22:03:59.623Z,14.43
2023-03-30T22:06:26.991Z,17.30
2023-03-30T22:08:54.136Z,15.88
2023-03-30T22:11:24.181Z,28.17
2023-03-30T22:13:52.128Z,24.40
2023-03-30T22:16:24.229Z,26.30
2023-03-30T22:18:52.120Z,23.05
2023-03-30T22:21:22.309Z,27.92
2023-03-30T22:23:49.157Z,16.88
2023-03-30T22:26:16.361Z,19.60
2023-03-30T22:28:43.506Z,28.00
2023-03-30T22:31:13.022Z,17.42
2023-03-30T22:33:40.130Z,16.88
2023-03-30T22:36:18.865Z,18.75
2023-03-30T22:38:47.248Z,19.88
2023-03-30T22:41:14.826Z,19.27
2023-03-30T22:43:41.963Z,20.27
2023-03-30T22:46:09.226Z,22.63
2023-03-30T22:48:36.777Z,22.75
2023-03-30T22:51:04.673Z,22.10
2023-03-30T22:53:32.134Z,20.23
2023-03-30T22:55:59.314Z,24.10
2023-03-30T22:58:26.653Z,21.33
2023-03-30T23:01:01.094Z,16.42
2023-03-30T23:03:28.611Z,22.30
2023-03-30T23:05:56.207Z,19.40
2023-03-30T23:08:24.028Z,16.70
2023-03-30T23:10:53.903Z,17.75
2023-03-30T23:13:20.633Z,19.27
2023-03-30T23:15:48.773Z,21.45
2023-03-30T23:18:16.057Z,20.73
2023-03-30T23:20:46.573Z,23.23
2023-03-30T23:23:14.807Z,16.40
2023-03-30T23:26:02.857Z,23.48
2023-03-30T23:28:30.747Z,21.75
2023-03-30T23:30:57.881Z,16.95
2023-03-30T23:33:25.293Z,15.10
2023-03-30T23:35:53.455Z,15.13
2023-03-30T23:38:20.990Z,15.77
2023-03-30T23:40:47.849Z,13.38
2023-03-30T23:43:14.961Z,15.90
2023-03-30T23:45:44.913Z,13.27
2023-03-30T23:48:11.861Z,15.23
2023-03-30T23:50:38.865Z,14.73
2023-03-30T23:53:07.050Z,17.48
2023-03-30T23:55:33.887Z,11.15
2023-03-30T23:58:01.458Z,14.90
